sensor_id;sensor_type;location;lat;lon;timestamp;P1;durP1;ratioP1;P2;durP2;ratioP2
2888;SDS011;1453;42.708;23.282;2023-02-18T00:01:31;30.00;;;18.20;;
2888;SDS011;1453;42.708;23.282;2023-02-18T00:03:58;30.08;;;17.17;;
2888;SDS011;1453;42.708;23.282;2023-02-18T00:06:26;28.05;;;16.58;;
2888;SDS011;1453;42.708;23.282;2023-02-18T00:08:55;32.00;;;16.38;;
2888;SDS011;1453;42.708;23.282;2023-02-18T00:11:24;28.48;;;18.40;;
2888;SDS011;1453;42.708;23.282;2023-02-18T00:13:50;38.17;;;18.15;;
2888;SDS011;1453;42.708;23.282;2023-02-18T00:16:18;40.28;;;18.75;;
2888;SDS011;1453;42.708;23.282;2023-02-18T00:18:45;30.40;;;16.65;;
2888;SDS011;1453;42.708;23.282;2023-02-18T00:21:10;32.40;;;17.73;;
2888;SDS011;1453;42.708;23.282;2023-02-18T00:23:36;37.75;;;20.88;;
2888;SDS011;1453;42.708;23.282;2023-02-18T00:26:07;30.77;;;16.67;;
2888;SDS011;1453;42.708;23.282;2023-02-18T00:28:37;34.80;;;19.50;;
2888;SDS011;1453;42.708;23.282;2023-02-18T00:31:07;32.33;;;18.67;;
2888;SDS011;1453;42.708;23.282;2023-02-18T00:33:40;32.45;;;17.92;;
2888;SDS011;1453;42.708;23.282;2023-02-18T00:36:18;29.33;;;17.55;;
2888;SDS011;1453;42.708;23.282;2023-02-18T00:38:46;31.20;;;18.08;;
2888;SDS011;1453;42.708;23.282;2023-02-18T00:41:14;29.58;;;16.55;;
2888;SDS011;1453;42.708;23.282;2023-02-18T00:43:41;30.45;;;17.67;;
2888;SDS011;1453;42.708;23.282;2023-02-18T00:46:07;29.00;;;16.45;;
2888;SDS011;1453;42.708;23.282;2023-02-18T00:48:34;26.83;;;16.27;;
2888;SDS011;1453;42.708;23.282;2023-02-18T00:51:00;32.60;;;17.25;;
2888;SDS011;1453;42.708;23.282;2023-02-18T00:53:28;29.40;;;16.40;;
2888;SDS011;1453;42.708;23.282;2023-02-18T00:55:54;28.98;;;16.83;;
2888;SDS011;1453;42.708;23.282;2023-02-18T00:58:20;30.65;;;15.13;;
2888;SDS011;1453;42.708;23.282;2023-02-18T01:00:46;33.17;;;18.07;;
2888;SDS011;1453;42.708;23.282;2023-02-18T01:03:13;33.72;;;18.70;;
2888;SDS011;1453;42.708;23.282;2023-02-18T01:05:39;31.58;;;16.63;;
2888;SDS011;1453;42.708;23.282;2023-02-18T01:08:06;29.45;;;15.40;;
2888;SDS011;1453;42.708;23.282;2023-02-18T01:10:34;31.80;;;17.30;;
2888;SDS011;1453;42.708;23.282;2023-02-18T01:13:04;28.52;;;15.00;;
2888;SDS011;1453;42.708;23.282;2023-02-18T01:15:30;28.10;;;15.50;;
2888;SDS011;1453;42.708;23.282;2023-02-18T01:17:56;37.15;;;15.73;;
2888;SDS011;1453;42.708;23.282;2023-02-18T01:20:22;23.90;;;15.40;;
2888;SDS011;1453;42.708;23.282;2023-02-18T01:22:48;28.48;;;16.48;;
2888;SDS011;1453;42.708;23.282;2023-02-18T01:25:14;28.57;;;17.17;;
2888;SDS011;1453;42.708;23.282;2023-02-18T01:27:40;22.85;;;14.90;;
2888;SDS011;1453;42.708;23.282;2023-02-18T01:30:07;31.20;;;17.13;;
2888;SDS011;1453;42.708;23.282;2023-02-18T01:32:36;36.95;;;18.58;;
2888;SDS011;1453;42.708;23.282;2023-02-18T01:35:03;32.08;;;16.55;;
2888;SDS011;1453;42.708;23.282;2023-02-18T01:37:30;26.27;;;14.57;;
2888;SDS011;1453;42.708;23.282;2023-02-18T01:39:56;27.80;;;15.50;;
2888;SDS011;1453;42.708;23.282;2023-02-18T01:42:23;30.50;;;16.63;;
2888;SDS011;1453;42.708;23.282;2023-02-18T01:44:53;25.92;;;15.48;;
2888;SDS011;1453;42.708;23.282;2023-02-18T01:47:57;37.08;;;18.50;;
2888;SDS011;1453;42.708;23.282;2023-02-18T01:50:46;31.80;;;16.25;;
2888;SDS011;1453;42.708;23.282;2023-02-18T01:53:26;38.20;;;18.60;;
2888;SDS011;1453;42.708;23.282;2023-02-18T01:56:04;31.65;;;18.60;;
2888;SDS011;1453;42.708;23.282;2023-02-18T01:58:35;33.35;;;15.48;;
2888;SDS011;1453;42.708;23.282;2023-02-18T02:01:01;35.40;;;18.73;;
2888;SDS011;1453;42.708;23.282;2023-02-18T02:03:29;39.10;;;20.17;;
2888;SDS011;1453;42.708;23.282;2023-02-18T02:05:54;46.47;;;23.27;;
2888;SDS011;1453;42.708;23.282;2023-02-18T02:08:20;32.83;;;19.10;;
2888;SDS011;1453;42.708;23.282;2023-02-18T02:10:59;50.00;;;24.58;;
2888;SDS011;1453;42.708;23.282;2023-02-18T02:25:48;21.75;;;12.38;;
2888;SDS011;1453;42.708;23.282;2023-02-18T02:46:22;32.17;;;16.48;;
2888;SDS011;1453;42.708;23.282;2023-02-18T02:51:36;23.20;;;15.00;;
2888;SDS011;1453;42.708;23.282;2023-02-18T02:54:29;25.20;;;15.23;;
2888;SDS011;1453;42.708;23.282;2023-02-18T02:59:43;25.73;;;14.68;;
2888;SDS011;1453;42.708;23.282;2023-02-18T03:11:23;25.73;;;15.15;;
2888;SDS011;1453;42.708;23.282;2023-02-18T03:17:25;27.60;;;16.20;;
2888;SDS011;1453;42.708;23.282;2023-02-18T03:20:05;27.45;;;15.80;;
2888;SDS011;1453;42.708;23.282;2023-02-18T03:22:45;24.50;;;14.52;;
2888;SDS011;1453;42.708;23.282;2023-02-18T03:25:13;32.90;;;16.85;;
2888;SDS011;1453;42.708;23.282;2023-02-18T03:31:07;26.00;;;16.38;;
2888;SDS011;1453;42.708;23.282;2023-02-18T03:33:20;26.98;;;17.70;;
2888;SDS011;1453;42.708;23.282;2023-02-18T03:35:53;28.55;;;17.55;;
2888;SDS011;1453;42.708;23.282;2023-02-18T03:38:23;30.13;;;16.48;;
2888;SDS011;1453;42.708;23.282;2023-02-18T03:40:57;29.00;;;16.73;;
2888;SDS011;1453;42.708;23.282;2023-02-18T03:43:23;25.85;;;15.75;;
2888;SDS011;1453;42.708;23.282;2023-02-18T03:45:49;28.60;;;16.07;;
2888;SDS011;1453;42.708;23.282;2023-02-18T03:48:16;28.15;;;16.95;;
2888;SDS011;1453;42.708;23.282;2023-02-18T03:50:42;30.80;;;17.08;;
2888;SDS011;1453;42.708;23.282;2023-02-18T03:53:08;28.00;;;15.57;;
2888;SDS011;1453;42.708;23.282;2023-02-18T03:55:33;29.97;;;16.50;;
2888;SDS011;1453;42.708;23.282;2023-02-18T03:57:59;27.63;;;15.27;;
2888;SDS011;1453;42.708;23.282;2023-02-18T04:00:25;26.17;;;13.83;;
2888;SDS011;1453;42.708;23.282;2023-02-18T04:02:51;29.27;;;16.40;;
2888;SDS011;1453;42.708;23.282;2023-02-18T04:05:16;24.17;;;13.87;;
2888;SDS011;1453;42.708;23.282;2023-02-18T04:07:42;20.47;;;10.93;;
2888;SDS011;1453;42.708;23.282;2023-02-18T04:10:08;29.53;;;15.30;;
2888;SDS011;1453;42.708;23.282;2023-02-18T04:12:35;40.50;;;21.15;;
2888;SDS011;1453;42.708;23.282;2023-02-18T04:15:00;38.10;;;19.40;;
2888;SDS011;1453;42.708;23.282;2023-02-18T04:17:26;34.80;;;19.60;;
2888;SDS011;1453;42.708;23.282;2023-02-18T04:19:52;46.40;;;21.60;;
2888;SDS011;1453;42.708;23.282;2023-02-18T04:22:17;26.60;;;14.70;;
2888;SDS011;1453;42.708;23.282;2023-02-18T04:24:43;40.67;;;21.20;;
2888;SDS011;1453;42.708;23.282;2023-02-18T04:27:09;44.73;;;22.20;;
2888;SDS011;1453;42.708;23.282;2023-02-18T04:29:35;31.40;;;16.17;;
2888;SDS011;1453;42.708;23.282;2023-02-18T04:32:01;47.70;;;26.87;;
2888;SDS011;1453;42.708;23.282;2023-02-18T04:34:26;38.53;;;20.20;;
2888;SDS011;1453;42.708;23.282;2023-02-18T04:36:52;33.97;;;19.33;;
2888;SDS011;1453;42.708;23.282;2023-02-18T04:39:18;30.00;;;17.20;;
2888;SDS011;1453;42.708;23.282;2023-02-18T04:41:44;40.73;;;17.70;;
2888;SDS011;1453;42.708;23.282;2023-02-18T04:44:09;34.90;;;19.83;;
2888;SDS011;1453;42.708;23.282;2023-02-18T04:46:35;34.27;;;18.97;;
2888;SDS011;1453;42.708;23.282;2023-02-18T04:49:01;38.63;;;24.10;;
2888;SDS011;1453;42.708;23.282;2023-02-18T04:51:27;38.08;;;23.35;;
2888;SDS011;1453;42.708;23.282;2023-02-18T04:53:53;39.03;;;22.73;;
2888;SDS011;1453;42.708;23.282;2023-02-18T04:56:18;32.23;;;20.37;;
2888;SDS011;1453;42.708;23.282;2023-02-18T04:58:44;39.00;;;21.73;;
2888;SDS011;1453;42.708;23.282;2023-02-18T05:01:10;31.37;;;20.07;;
2888;SDS011;1453;42.708;23.282;2023-02-18T05:03:37;41.75;;;22.75;;
2888;SDS011;1453;42.708;23.282;2023-02-18T05:06:02;43.40;;;23.77;;
2888;SDS011;1453;42.708;23.282;2023-02-18T05:08:29;42.80;;;22.92;;
2888;SDS011;1453;42.708;23.282;2023-02-18T05:10:54;38.03;;;22.50;;
2888;SDS011;1453;42.708;23.282;2023-02-18T05:13:20;44.47;;;24.63;;
2888;SDS011;1453;42.708;23.282;2023-02-18T05:15:47;43.13;;;21.20;;
2888;SDS011;1453;42.708;23.282;2023-02-18T05:18:13;42.00;;;23.00;;
2888;SDS011;1453;42.708;23.282;2023-02-18T05:20:39;38.53;;;22.10;;
2888;SDS011;1453;42.708;23.282;2023-02-18T05:23:05;39.80;;;21.17;;
2888;SDS011;1453;42.708;23.282;2023-02-18T05:25:31;40.63;;;20.30;;
2888;SDS011;1453;42.708;23.282;2023-02-18T05:27:56;35.87;;;18.87;;
2888;SDS011;1453;42.708;23.282;2023-02-18T05:30:22;40.43;;;19.13;;
2888;SDS011;1453;42.708;23.282;2023-02-18T05:32:48;35.60;;;18.57;;
2888;SDS011;1453;42.708;23.282;2023-02-18T05:35:14;52.37;;;25.90;;
2888;SDS011;1453;42.708;23.282;2023-02-18T05:37:40;47.00;;;27.87;;
2888;SDS011;1453;42.708;23.282;2023-02-18T05:40:06;49.97;;;27.60;;
2888;SDS011;1453;42.708;23.282;2023-02-18T05:42:32;47.50;;;22.35;;
2888;SDS011;1453;42.708;23.282;2023-02-18T05:44:58;39.10;;;23.20;;
2888;SDS011;1453;42.708;23.282;2023-02-18T05:47:24;31.97;;;19.30;;
2888;SDS011;1453;42.708;23.282;2023-02-18T05:49:49;36.60;;;21.47;;
2888;SDS011;1453;42.708;23.282;2023-02-18T05:52:15;37.70;;;23.20;;
2888;SDS011;1453;42.708;23.282;2023-02-18T05:54:41;56.67;;;28.88;;
2888;SDS011;1453;42.708;23.282;2023-02-18T05:57:09;45.75;;;26.00;;
2888;SDS011;1453;42.708;23.282;2023-02-18T05:59:38;71.70;;;34.05;;
2888;SDS011;1453;42.708;23.282;2023-02-18T06:02:04;46.30;;;26.87;;
2888;SDS011;1453;42.708;23.282;2023-02-18T06:04:29;48.73;;;28.17;;
2888;SDS011;1453;42.708;23.282;2023-02-18T06:06:55;48.80;;;28.57;;
2888;SDS011;1453;42.708;23.282;2023-02-18T06:09:21;42.53;;;26.23;;
2888;SDS011;1453;42.708;23.282;2023-02-18T06:11:47;44.23;;;25.20;;
2888;SDS011;1453;42.708;23.282;2023-02-18T06:14:13;38.57;;;21.10;;
2888;SDS011;1453;42.708;23.282;2023-02-18T06:16:38;39.40;;;18.93;;
2888;SDS011;1453;42.708;23.282;2023-02-18T06:19:04;42.37;;;21.70;;
2888;SDS011;1453;42.708;23.282;2023-02-18T06:21:30;48.80;;;24.00;;
2888;SDS011;1453;42.708;23.282;2023-02-18T06:23:56;54.80;;;25.57;;
2888;SDS011;1453;42.708;23.282;2023-02-18T06:26:22;46.57;;;23.67;;
2888;SDS011;1453;42.708;23.282;2023-02-18T06:28:48;46.60;;;26.05;;
2888;SDS011;1453;42.708;23.282;2023-02-18T06:31:14;42.70;;;24.50;;
2888;SDS011;1453;42.708;23.282;2023-02-18T06:33:40;43.90;;;26.40;;
2888;SDS011;1453;42.708;23.282;2023-02-18T06:36:07;63.70;;;34.40;;
2888;SDS011;1453;42.708;23.282;2023-02-18T06:38:37;50.42;;;27.73;;
2888;SDS011;1453;42.708;23.282;2023-02-18T06:41:05;44.50;;;21.42;;
2888;SDS011;1453;42.708;23.282;2023-02-18T06:43:32;52.17;;;27.05;;
2888;SDS011;1453;42.708;23.282;2023-02-18T06:45:58;80.15;;;44.78;;
2888;SDS011;1453;42.708;23.282;2023-02-18T06:48:23;70.57;;;38.43;;
2888;SDS011;1453;42.708;23.282;2023-02-18T06:50:49;57.20;;;29.50;;
2888;SDS011;1453;42.708;23.282;2023-02-18T06:53:15;53.50;;;29.50;;
2888;SDS011;1453;42.708;23.282;2023-02-18T06:55:41;45.17;;;25.87;;
2888;SDS011;1453;42.708;23.282;2023-02-18T06:58:09;49.50;;;27.42;;
2888;SDS011;1453;42.708;23.282;2023-02-18T07:00:35;45.95;;;24.85;;
2888;SDS011;1453;42.708;23.282;2023-02-18T07:03:02;31.00;;;20.10;;
2888;SDS011;1453;42.708;23.282;2023-02-18T07:05:29;37.53;;;23.17;;
2888;SDS011;1453;42.708;23.282;2023-02-18T07:07:55;44.85;;;24.85;;
2888;SDS011;1453;42.708;23.282;2023-02-18T07:10:21;42.60;;;24.60;;
2888;SDS011;1453;42.708;23.282;2023-02-18T07:12:47;38.30;;;22.87;;
2888;SDS011;1453;42.708;23.282;2023-02-18T07:15:12;42.37;;;24.20;;
2888;SDS011;1453;42.708;23.282;2023-02-18T07:17:39;44.00;;;24.02;;
2888;SDS011;1453;42.708;23.282;2023-02-18T07:20:05;39.17;;;23.33;;
2888;SDS011;1453;42.708;23.282;2023-02-18T07:22:33;47.97;;;22.70;;
2888;SDS011;1453;42.708;23.282;2023-02-18T07:24:59;33.00;;;21.77;;
2888;SDS011;1453;42.708;23.282;2023-02-18T07:27:25;46.10;;;19.67;;
2888;SDS011;1453;42.708;23.282;2023-02-18T07:29:51;31.67;;;21.95;;
2888;SDS011;1453;42.708;23.282;2023-02-18T07:32:17;46.90;;;23.80;;
2888;SDS011;1453;42.708;23.282;2023-02-18T07:34:44;38.83;;;24.00;;
2888;SDS011;1453;42.708;23.282;2023-02-18T07:37:10;45.50;;;25.50;;
2888;SDS011;1453;42.708;23.282;2023-02-18T07:39:40;63.38;;;26.13;;
2888;SDS011;1453;42.708;23.282;2023-02-18T07:42:07;44.83;;;26.00;;
2888;SDS011;1453;42.708;23.282;2023-02-18T07:44:34;41.65;;;23.63;;
2888;SDS011;1453;42.708;23.282;2023-02-18T07:47:01;47.55;;;23.75;;
2888;SDS011;1453;42.708;23.282;2023-02-18T07:49:29;38.20;;;25.30;;
2888;SDS011;1453;42.708;23.282;2023-02-18T07:51:55;55.08;;;27.60;;
2888;SDS011;1453;42.708;23.282;2023-02-18T07:54:21;46.70;;;28.63;;
2888;SDS011;1453;42.708;23.282;2023-02-18T07:56:47;48.23;;;28.07;;
2888;SDS011;1453;42.708;23.282;2023-02-18T07:59:12;51.60;;;26.83;;
2888;SDS011;1453;42.708;23.282;2023-02-18T08:01:39;39.93;;;24.00;;
2888;SDS011;1453;42.708;23.282;2023-02-18T08:04:05;50.30;;;24.60;;
2888;SDS011;1453;42.708;23.282;2023-02-18T08:06:38;39.77;;;25.10;;
2888;SDS011;1453;42.708;23.282;2023-02-18T08:09:06;38.80;;;22.50;;
2888;SDS011;1453;42.708;23.282;2023-02-18T08:11:32;38.80;;;20.33;;
2888;SDS011;1453;42.708;23.282;2023-02-18T08:13:59;35.97;;;21.10;;
2888;SDS011;1453;42.708;23.282;2023-02-18T08:16:25;41.97;;;20.90;;
2888;SDS011;1453;42.708;23.282;2023-02-18T08:18:52;31.00;;;19.57;;
2888;SDS011;1453;42.708;23.282;2023-02-18T08:21:19;30.97;;;19.50;;
2888;SDS011;1453;42.708;23.282;2023-02-18T08:23:47;35.97;;;20.00;;
2888;SDS011;1453;42.708;23.282;2023-02-18T08:26:13;33.20;;;20.47;;
2888;SDS011;1453;42.708;23.282;2023-02-18T08:28:40;40.00;;;24.87;;
2888;SDS011;1453;42.708;23.282;2023-02-18T08:31:07;34.93;;;21.83;;
2888;SDS011;1453;42.708;23.282;2023-02-18T08:33:45;32.37;;;19.43;;
2888;SDS011;1453;42.708;23.282;2023-02-18T08:36:11;36.57;;;23.73;;
2888;SDS011;1453;42.708;23.282;2023-02-18T08:38:37;42.13;;;24.50;;
2888;SDS011;1453;42.708;23.282;2023-02-18T08:41:04;40.73;;;23.40;;
2888;SDS011;1453;42.708;23.282;2023-02-18T08:43:31;40.40;;;22.43;;
2888;SDS011;1453;42.708;23.282;2023-02-18T08:45:58;41.40;;;25.30;;
2888;SDS011;1453;42.708;23.282;2023-02-18T08:48:24;42.43;;;24.50;;
2888;SDS011;1453;42.708;23.282;2023-02-18T08:50:51;43.07;;;23.33;;
2888;SDS011;1453;42.708;23.282;2023-02-18T08:53:17;27.47;;;15.97;;
2888;SDS011;1453;42.708;23.282;2023-02-18T08:55:43;19.77;;;10.50;;
2888;SDS011;1453;42.708;23.282;2023-02-18T08:58:09;16.47;;;10.07;;
2888;SDS011;1453;42.708;23.282;2023-02-18T09:00:35;19.87;;;10.30;;
2888;SDS011;1453;42.708;23.282;2023-02-18T09:03:02;13.97;;;9.40;;
2888;SDS011;1453;42.708;23.282;2023-02-18T09:05:28;17.70;;;10.50;;
2888;SDS011;1453;42.708;23.282;2023-02-18T09:07:54;17.70;;;11.20;;
2888;SDS011;1453;42.708;23.282;2023-02-18T09:10:21;16.10;;;10.30;;
2888;SDS011;1453;42.708;23.282;2023-02-18T09:12:47;17.77;;;10.53;;
2888;SDS011;1453;42.708;23.282;2023-02-18T09:15:13;23.13;;;10.93;;
2888;SDS011;1453;42.708;23.282;2023-02-18T09:17:39;15.17;;;8.77;;
2888;SDS011;1453;42.708;23.282;2023-02-18T09:20:05;23.27;;;11.90;;
2888;SDS011;1453;42.708;23.282;2023-02-18T09:22:31;24.10;;;14.13;;
2888;SDS011;1453;42.708;23.282;2023-02-18T09:24:57;17.67;;;11.77;;
2888;SDS011;1453;42.708;23.282;2023-02-18T09:27:23;17.33;;;10.33;;
2888;SDS011;1453;42.708;23.282;2023-02-18T09:29:50;13.20;;;9.90;;
2888;SDS011;1453;42.708;23.282;2023-02-18T09:32:16;16.90;;;9.50;;
2888;SDS011;1453;42.708;23.282;2023-02-18T09:34:42;12.83;;;9.60;;
2888;SDS011;1453;42.708;23.282;2023-02-18T09:37:09;14.67;;;9.90;;
2888;SDS011;1453;42.708;23.282;2023-02-18T09:39:36;12.17;;;9.73;;
2888;SDS011;1453;42.708;23.282;2023-02-18T09:42:06;16.80;;;10.20;;
2888;SDS011;1453;42.708;23.282;2023-02-18T09:44:42;27.73;;;10.60;;
2888;SDS011;1453;42.708;23.282;2023-02-18T09:47:21;14.60;;;10.83;;
2888;SDS011;1453;42.708;23.282;2023-02-18T09:49:59;16.47;;;10.03;;
2888;SDS011;1453;42.708;23.282;2023-02-18T09:52:51;14.23;;;8.80;;
2888;SDS011;1453;42.708;23.282;2023-02-18T09:57:56;9.97;;;7.47;;
2888;SDS011;1453;42.708;23.282;2023-02-18T10:02:56;9.20;;;6.37;;
2888;SDS011;1453;42.708;23.282;2023-02-18T10:05:28;11.33;;;6.93;;
2888;SDS011;1453;42.708;23.282;2023-02-18T10:07:57;10.50;;;7.63;;
2888;SDS011;1453;42.708;23.282;2023-02-18T10:13:13;13.20;;;8.57;;
2888;SDS011;1453;42.708;23.282;2023-02-18T10:15:46;14.20;;;9.03;;
2888;SDS011;1453;42.708;23.282;2023-02-18T10:18:19;15.50;;;9.27;;
2888;SDS011;1453;42.708;23.282;2023-02-18T10:21:13;9.07;;;5.53;;
2888;SDS011;1453;42.708;23.282;2023-02-18T10:26:57;10.40;;;6.67;;
2888;SDS011;1453;42.708;23.282;2023-02-18T10:29:23;13.23;;;5.60;;
2888;SDS011;1453;42.708;23.282;2023-02-18T10:40:57;8.93;;;5.33;;
2888;SDS011;1453;42.708;23.282;2023-02-18T10:51:55;10.17;;;6.73;;
2888;SDS011;1453;42.708;23.282;2023-02-18T10:54:26;8.70;;;5.73;;
2888;SDS011;1453;42.708;23.282;2023-02-18T10:57:28;11.93;;;5.53;;
2888;SDS011;1453;42.708;23.282;2023-02-18T11:00:14;13.57;;;5.80;;
2888;SDS011;1453;42.708;23.282;2023-02-18T11:02:47;10.80;;;5.10;;
2888;SDS011;1453;42.708;23.282;2023-02-18T11:05:40;9.60;;;5.13;;
2888;SDS011;1453;42.708;23.282;2023-02-18T11:08:12;9.37;;;4.80;;
2888;SDS011;1453;42.708;23.282;2023-02-18T11:10:44;7.27;;;4.23;;
2888;SDS011;1453;42.708;23.282;2023-02-18T11:13:12;9.07;;;5.30;;
2888;SDS011;1453;42.708;23.282;2023-02-18T11:15:53;8.47;;;4.30;;
2888;SDS011;1453;42.708;23.282;2023-02-18T11:18:40;9.90;;;6.43;;
2888;SDS011;1453;42.708;23.282;2023-02-18T11:23:55;6.90;;;5.30;;
2888;SDS011;1453;42.708;23.282;2023-02-18T11:26:31;5.90;;;4.60;;
2888;SDS011;1453;42.708;23.282;2023-02-18T11:29:14;6.80;;;4.57;;
2888;SDS011;1453;42.708;23.282;2023-02-18T11:31:54;7.53;;;4.60;;
2888;SDS011;1453;42.708;23.282;2023-02-18T11:34:26;6.63;;;5.17;;
2888;SDS011;1453;42.708;23.282;2023-02-18T11:36:55;8.40;;;5.80;;
2888;SDS011;1453;42.708;23.282;2023-02-18T11:39:40;6.70;;;5.30;;
2888;SDS011;1453;42.708;23.282;2023-02-18T11:42:12;7.40;;;5.60;;
2888;SDS011;1453;42.708;23.282;2023-02-18T11:44:40;9.13;;;5.80;;
2888;SDS011;1453;42.708;23.282;2023-02-18T11:47:32;7.43;;;5.30;;
2888;SDS011;1453;42.708;23.282;2023-02-18T11:50:13;7.90;;;5.60;;
2888;SDS011;1453;42.708;23.282;2023-02-18T11:52:46;6.77;;;5.30;;
2888;SDS011;1453;42.708;23.282;2023-02-18T11:55:22;7.57;;;5.33;;
2888;SDS011;1453;42.708;23.282;2023-02-18T11:57:54;9.30;;;5.37;;
2888;SDS011;1453;42.708;23.282;2023-02-18T12:06:14;7.27;;;5.57;;
2888;SDS011;1453;42.708;23.282;2023-02-18T12:09:36;8.07;;;5.77;;
2888;SDS011;1453;42.708;23.282;2023-02-18T12:12:00;13.37;;;6.30;;
2888;SDS011;1453;42.708;23.282;2023-02-18T12:14:33;7.13;;;5.20;;
2888;SDS011;1453;42.708;23.282;2023-02-18T12:23:27;7.73;;;5.20;;
2888;SDS011;1453;42.708;23.282;2023-02-18T12:28:55;11.97;;;5.40;;
2888;SDS011;1453;42.708;23.282;2023-02-18T12:46:08;6.83;;;4.97;;
2888;SDS011;1453;42.708;23.282;2023-02-18T13:15:22;7.40;;;5.57;;
2888;SDS011;1453;42.708;23.282;2023-02-18T13:18:02;7.13;;;6.10;;
2888;SDS011;1453;42.708;23.282;2023-02-18T13:20:41;9.37;;;6.10;;
2888;SDS011;1453;42.708;23.282;2023-02-18T13:23:19;10.37;;;5.83;;
2888;SDS011;1453;42.708;23.282;2023-02-18T13:25:55;10.23;;;5.57;;
2888;SDS011;1453;42.708;23.282;2023-02-18T13:28:31;9.40;;;6.23;;
2888;SDS011;1453;42.708;23.282;2023-02-18T13:34:23;9.10;;;6.70;;
2888;SDS011;1453;42.708;23.282;2023-02-18T13:37:01;7.53;;;5.30;;
2888;SDS011;1453;42.708;23.282;2023-02-18T13:39:51;13.60;;;6.00;;
2888;SDS011;1453;42.708;23.282;2023-02-18T13:50:24;10.00;;;6.00;;
2888;SDS011;1453;42.708;23.282;2023-02-18T13:58:30;8.17;;;5.63;;
2888;SDS011;1453;42.708;23.282;2023-02-18T14:03:49;6.80;;;5.17;;
2888;SDS011;1453;42.708;23.282;2023-02-18T14:11:47;9.83;;;5.77;;
2888;SDS011;1453;42.708;23.282;2023-02-18T14:14:41;10.50;;;4.93;;
2888;SDS011;1453;42.708;23.282;2023-02-18T14:19:42;9.47;;;6.33;;
2888;SDS011;1453;42.708;23.282;2023-02-18T14:27:38;8.53;;;5.77;;
2888;SDS011;1453;42.708;23.282;2023-02-18T14:30:07;7.93;;;4.80;;
2888;SDS011;1453;42.708;23.282;2023-02-18T14:32:50;17.43;;;6.03;;
2888;SDS011;1453;42.708;23.282;2023-02-18T14:35:40;15.33;;;5.60;;
2888;SDS011;1453;42.708;23.282;2023-02-18T14:38:55;9.67;;;5.13;;
2888;SDS011;1453;42.708;23.282;2023-02-18T14:50:40;8.53;;;5.23;;
2888;SDS011;1453;42.708;23.282;2023-02-18T14:53:12;6.43;;;5.60;;
2888;SDS011;1453;42.708;23.282;2023-02-18T14:55:48;7.90;;;5.50;;
2888;SDS011;1453;42.708;23.282;2023-02-18T14:58:34;9.00;;;5.63;;
2888;SDS011;1453;42.708;23.282;2023-02-18T15:03:41;8.80;;;5.60;;
2888;SDS011;1453;42.708;23.282;2023-02-18T15:09:00;11.83;;;5.20;;
2888;SDS011;1453;42.708;23.282;2023-02-18T15:11:55;9.13;;;5.20;;
2888;SDS011;1453;42.708;23.282;2023-02-18T15:14:38;12.83;;;6.40;;
2888;SDS011;1453;42.708;23.282;2023-02-18T15:17:13;10.60;;;6.00;;
2888;SDS011;1453;42.708;23.282;2023-02-18T15:19:50;7.50;;;6.03;;
2888;SDS011;1453;42.708;23.282;2023-02-18T15:22:23;10.90;;;5.70;;
2888;SDS011;1453;42.708;23.282;2023-02-18T15:24:52;10.40;;;6.40;;
2888;SDS011;1453;42.708;23.282;2023-02-18T15:27:27;10.10;;;5.20;;
2888;SDS011;1453;42.708;23.282;2023-02-18T15:29:57;7.43;;;5.07;;
2888;SDS011;1453;42.708;23.282;2023-02-18T15:32:44;9.13;;;5.40;;
2888;SDS011;1453;42.708;23.282;2023-02-18T15:35:16;14.40;;;6.83;;
2888;SDS011;1453;42.708;23.282;2023-02-18T15:37:45;12.30;;;6.50;;
2888;SDS011;1453;42.708;23.282;2023-02-18T15:40:16;9.63;;;6.80;;
2888;SDS011;1453;42.708;23.282;2023-02-18T15:42:50;8.97;;;6.33;;
2888;SDS011;1453;42.708;23.282;2023-02-18T15:45:21;14.27;;;7.13;;
2888;SDS011;1453;42.708;23.282;2023-02-18T15:51:10;16.30;;;6.70;;
2888;SDS011;1453;42.708;23.282;2023-02-18T15:53:39;10.30;;;6.10;;
2888;SDS011;1453;42.708;23.282;2023-02-18T15:56:12;16.97;;;6.57;;
2888;SDS011;1453;42.708;23.282;2023-02-18T15:58:54;9.80;;;6.50;;
2888;SDS011;1453;42.708;23.282;2023-02-18T16:01:52;11.00;;;7.37;;
2888;SDS011;1453;42.708;23.282;2023-02-18T16:04:22;12.43;;;7.00;;
2888;SDS011;1453;42.708;23.282;2023-02-18T16:06:54;12.77;;;7.63;;
2888;SDS011;1453;42.708;23.282;2023-02-18T16:09:29;13.80;;;7.13;;
2888;SDS011;1453;42.708;23.282;2023-02-18T16:11:58;11.70;;;7.10;;
2888;SDS011;1453;42.708;23.282;2023-02-18T16:14:28;8.93;;;7.10;;
2888;SDS011;1453;42.708;23.282;2023-02-18T16:22:36;9.93;;;7.13;;
2888;SDS011;1453;42.708;23.282;2023-02-18T16:25:20;13.30;;;8.10;;
2888;SDS011;1453;42.708;23.282;2023-02-18T16:30:27;11.67;;;7.47;;
2888;SDS011;1453;42.708;23.282;2023-02-18T16:32:56;13.23;;;7.03;;
2888;SDS011;1453;42.708;23.282;2023-02-18T16:35:25;14.67;;;9.40;;
2888;SDS011;1453;42.708;23.282;2023-02-18T16:37:53;15.83;;;9.70;;
2888;SDS011;1453;42.708;23.282;2023-02-18T16:45:46;14.37;;;8.77;;
2888;SDS011;1453;42.708;23.282;2023-02-18T16:48:16;16.10;;;9.77;;
2888;SDS011;1453;42.708;23.282;2023-02-18T16:50:50;15.90;;;9.20;;
2888;SDS011;1453;42.708;23.282;2023-02-18T16:53:17;17.13;;;9.37;;
2888;SDS011;1453;42.708;23.282;2023-02-18T16:55:44;12.83;;;9.20;;
2888;SDS011;1453;42.708;23.282;2023-02-18T16:58:10;16.07;;;8.80;;
2888;SDS011;1453;42.708;23.282;2023-02-18T17:00:36;14.10;;;8.37;;
2888;SDS011;1453;42.708;23.282;2023-02-18T17:03:02;16.10;;;8.87;;
2888;SDS011;1453;42.708;23.282;2023-02-18T17:05:30;13.20;;;8.47;;
2888;SDS011;1453;42.708;23.282;2023-02-18T17:08:25;13.50;;;8.63;;
2888;SDS011;1453;42.708;23.282;2023-02-18T17:10:52;15.77;;;10.47;;
2888;SDS011;1453;42.708;23.282;2023-02-18T17:13:23;21.03;;;12.57;;
2888;SDS011;1453;42.708;23.282;2023-02-18T17:15:52;20.63;;;12.03;;
2888;SDS011;1453;42.708;23.282;2023-02-18T17:18:20;21.10;;;12.70;;
2888;SDS011;1453;42.708;23.282;2023-02-18T17:20:48;18.20;;;12.10;;
2888;SDS011;1453;42.708;23.282;2023-02-18T17:23:20;14.50;;;10.03;;
2888;SDS011;1453;42.708;23.282;2023-02-18T17:25:48;17.63;;;9.67;;
2888;SDS011;1453;42.708;23.282;2023-02-18T17:28:15;14.90;;;9.63;;
2888;SDS011;1453;42.708;23.282;2023-02-18T17:30:43;14.87;;;9.57;;
2888;SDS011;1453;42.708;23.282;2023-02-18T17:33:20;17.67;;;9.23;;
2888;SDS011;1453;42.708;23.282;2023-02-18T17:35:49;16.70;;;10.77;;
2888;SDS011;1453;42.708;23.282;2023-02-18T17:38:15;19.93;;;10.73;;
2888;SDS011;1453;42.708;23.282;2023-02-18T17:40:43;20.23;;;11.33;;
2888;SDS011;1453;42.708;23.282;2023-02-18T17:43:14;15.83;;;10.17;;
2888;SDS011;1453;42.708;23.282;2023-02-18T17:45:47;11.10;;;8.03;;
2888;SDS011;1453;42.708;23.282;2023-02-18T17:48:18;17.53;;;10.43;;
2888;SDS011;1453;42.708;23.282;2023-02-18T17:50:45;18.30;;;10.10;;
2888;SDS011;1453;42.708;23.282;2023-02-18T17:53:11;19.10;;;10.80;;
2888;SDS011;1453;42.708;23.282;2023-02-18T17:55:38;20.40;;;12.37;;
2888;SDS011;1453;42.708;23.282;2023-02-18T17:58:06;19.77;;;10.83;;
2888;SDS011;1453;42.708;23.282;2023-02-18T18:00:37;21.57;;;12.30;;
2888;SDS011;1453;42.708;23.282;2023-02-18T18:03:06;18.37;;;10.40;;
2888;SDS011;1453;42.708;23.282;2023-02-18T18:05:33;18.53;;;10.17;;
2888;SDS011;1453;42.708;23.282;2023-02-18T18:08:02;14.80;;;8.87;;
2888;SDS011;1453;42.708;23.282;2023-02-18T18:10:30;16.40;;;9.57;;
2888;SDS011;1453;42.708;23.282;2023-02-18T18:13:01;14.73;;;7.93;;
2888;SDS011;1453;42.708;23.282;2023-02-18T18:15:30;15.63;;;7.77;;
2888;SDS011;1453;42.708;23.282;2023-02-18T18:18:06;15.20;;;7.33;;
2888;SDS011;1453;42.708;23.282;2023-02-18T18:20:35;11.10;;;6.60;;
2888;SDS011;1453;42.708;23.282;2023-02-18T18:23:02;12.47;;;6.50;;